Time;durP1;ratioP1;P1;durP2;ratioP2;P2;SDS_P1;SDS_P2;PMS_P1;PMS_P2;Temp;Humidity;BMP_temperature;BMP_pressure;BME280_temperature;BME280_humidity;BME280_pressure;Samples;Min_cycle;Max_cycle;Signal;HPM_P1;HPM_P2
2021/04/07 00:02:07;;;;;;;6.13;1.83;;;;;;;2.48;67.13;99298.78;5078579;28;20048;-85
2021/04/07 00:04:35;;;;;;;6.65;2.30;;;;;;;2.45;67.94;99302.31;5096220;28;20044;-84
2021/04/07 00:07:02;;;;;;;9.57;1.98;;;;;;;2.40;67.62;99309.41;5096486;28;20048;-85
2021/04/07 00:09:29;;;;;;;9.00;1.77;;;;;;;2.37;68.12;99309.50;5096208;28;20048;-84
2021/04/07 00:11:55;;;;;;;5.60;1.35;;;;;;;2.33;67.58;99310.50;5096297;28;20097;-85
2021/04/07 00:14:21;;;;;;;7.55;1.70;;;;;;;2.30;67.91;99302.78;5078158;28;20058;-84
2021/04/07 00:16:49;;;;;;;8.73;1.60;;;;;;;2.28;67.65;99310.63;5078367;28;20055;-84
2021/04/07 00:19:16;;;;;;;6.78;2.00;;;;;;;2.26;67.95;99304.63;5078191;28;20046;-84
2021/04/07 00:21:42;;;;;;;9.80;1.88;;;;;;;2.25;68.54;99309.88;5078001;28;20051;-85
2021/04/07 00:24:08;;;;;;;7.45;1.73;;;;;;;2.26;67.99;99301.16;5077653;28;20138;-84
2021/04/07 00:26:35;;;;;;;6.72;1.95;;;;;;;2.26;68.47;99303.78;5077717;28;20048;-84
2021/04/07 00:29:02;;;;;;;7.40;2.28;;;;;;;2.27;68.78;99308.06;5095961;28;20454;-85
2021/04/07 00:31:29;;;;;;;5.60;2.00;;;;;;;2.27;68.33;99305.47;5078034;28;20044;-84
2021/04/07 00:33:55;;;;;;;7.47;2.30;;;;;;;2.27;68.52;99301.13;5077605;28;20504;-85
2021/04/07 00:36:21;;;;;;;10.73;2.47;;;;;;;2.25;68.56;99299.47;5077807;28;20048;-85
2021/04/07 00:38:47;;;;;;;5.90;1.70;;;;;;;2.25;68.34;99294.28;5077761;28;20048;-84
2021/04/07 00:41:13;;;;;;;6.53;2.10;;;;;;;2.25;68.30;99283.91;5077666;28;20511;-83
2021/04/07 00:43:39;;;;;;;9.63;2.30;;;;;;;2.21;68.38;99289.19;5077803;28;20121;-84
2021/04/07 00:46:05;;;;;;;8.80;2.30;;;;;;;2.20;68.11;99294.41;5095626;28;20051;-84
2021/04/07 00:48:32;;;;;;;5.40;1.90;;;;;;;2.17;68.10;99290.16;5095441;28;20074;-84
2021/04/07 00:50:58;;;;;;;12.27;1.85;;;;;;;2.15;68.39;99297.16;5077913;28;20048;-84
2021/04/07 00:53:24;;;;;;;3.25;1.80;;;;;;;2.14;68.65;99297.22;5095646;28;20048;-84
2021/04/07 00:55:51;;;;;;;12.43;2.33;;;;;;;2.13;68.74;99298.94;5076888;28;20493;-84
2021/04/07 00:58:17;;;;;;;8.35;2.00;;;;;;;2.13;68.76;99306.72;5077197;28;20075;-84
2021/04/07 01:00:44;;;;;;;9.48;2.17;;;;;;;2.12;68.58;99318.00;5077329;28;20056;-84
2021/04/07 01:03:14;;;;;;;7.28;2.10;;;;;;;2.11;68.43;99311.13;5077137;28;20500;-83
2021/04/07 01:05:41;;;;;;;7.78;1.95;;;;;;;2.13;68.80;99314.50;5095308;28;20568;-83
2021/04/07 01:08:07;;;;;;;5.97;2.13;;;;;;;2.12;68.67;99320.63;5076613;28;20109;-84
2021/04/07 01:10:33;;;;;;;6.63;2.17;;;;;;;2.12;68.16;99307.63;5094982;28;20484;-83
2021/04/07 01:12:59;;;;;;;8.00;2.05;;;;;;;2.12;68.67;99312.81;5095071;28;20052;-86
2021/04/07 01:15:26;;;;;;;9.68;2.03;;;;;;;2.11;68.20;99302.47;5094541;28;20044;-86
2021/04/07 01:17:55;;;;;;;6.22;2.00;;;;;;;2.07;68.22;99299.13;5076881;28;20443;-86
2021/04/07 01:20:22;;;;;;;9.70;2.60;;;;;;;2.06;68.30;99307.81;5077523;28;20601;-86
2021/04/07 01:22:54;;;;;;;8.95;2.00;;;;;;;2.03;68.36;99308.78;5076539;28;20101;-85
2021/04/07 01:25:21;;;;;;;12.68;2.28;;;;;;;2.02;68.56;99312.22;5076254;28;20545;-86
2021/04/07 01:27:47;;;;;;;11.02;2.47;;;;;;;1.97;68.27;99308.09;5076508;28;20052;-85
2021/04/07 01:30:16;;;;;;;8.68;2.50;;;;;;;1.95;68.25;99296.00;5076356;28;20048;-85
2021/04/07 01:32:43;;;;;;;9.18;2.30;;;;;;;1.93;68.35;99302.13;5094264;28;20070;-86
2021/04/07 01:35:12;;;;;;;9.88;1.98;;;;;;;1.90;68.67;99305.66;5094459;28;20047;-86
2021/04/07 01:37:39;;;;;;;11.65;2.33;;;;;;;1.87;68.64;99305.72;5076382;28;20051;-86
2021/04/07 01:40:08;;;;;;;7.60;1.95;;;;;;;1.84;68.38;99308.44;5076410;28;20048;-85
2021/04/07 01:42:35;;;;;;;5.78;1.73;;;;;;;1.83;68.99;99296.34;5076452;28;20059;-86
2021/04/07 01:45:04;;;;;;;16.88;2.22;;;;;;;1.82;69.15;99310.22;5094083;28;20051;-86
2021/04/07 01:47:31;;;;;;;14.45;2.38;;;;;;;1.80;68.84;99301.63;5076558;28;20048;-86
2021/04/07 01:50:00;;;;;;;8.30;1.88;;;;;;;1.79;68.53;99299.91;5094414;28;20066;-86
2021/04/07 01:52:28;;;;;;;10.85;2.00;;;;;;;1.76;68.81;99292.22;5075959;28;20048;-86
2021/04/07 01:54:55;;;;;;;16.73;2.47;;;;;;;1.74;68.96;99296.59;5093794;28;20044;-86
2021/04/07 01:57:22;;;;;;;8.55;2.25;;;;;;;1.71;69.24;99288.94;5076296;28;20430;-86
2021/04/07 01:59:49;;;;;;;13.50;2.60;;;;;;;1.68;68.73;99282.91;5093901;28;20412;-86
2021/04/07 02:02:15;;;;;;;7.13;2.20;;;;;;;1.67;68.63;99296.78;5076180;28;20051;-86
2021/04/07 02:04:41;;;;;;;12.52;2.13;;;;;;;1.62;69.33;99293.47;5094012;28;20048;-85
2021/04/07 02:07:10;;;;;;;10.13;2.53;;;;;;;1.60;69.28;99297.84;5093892;28;20074;-86
2021/04/07 02:09:36;;;;;;;11.50;2.10;;;;;;;1.59;69.49;99303.06;5075969;28;20073;-86
2021/04/07 02:12:03;;;;;;;13.95;2.53;;;;;;;1.57;69.58;99300.50;5075985;28;20488;-86
2021/04/07 02:14:30;;;;;;;8.23;2.38;;;;;;;1.56;69.14;99293.63;5093621;28;20044;-86
2021/04/07 02:16:58;;;;;;;8.32;1.63;;;;;;;1.55;69.83;99297.13;5076061;28;20040;-86
2021/04/07 02:19:26;;;;;;;7.00;1.40;;;;;;;1.54;69.60;99304.03;5094090;28;20468;-86
2021/04/07 02:22:01;;;;;;;7.72;1.60;;;;;;;1.52;69.38;99298.06;5093677;28;20063;-87
2021/04/07 02:24:28;;;;;;;8.30;1.73;;;;;;;1.52;69.39;99289.41;5074781;28;20052;-85
2021/04/07 02:26:54;;;;;;;13.00;2.05;;;;;;;1.51;70.04;99290.31;5074435;28;20048;-86
2021/04/07 02:29:20;;;;;;;11.07;1.67;;;;;;;1.49;69.75;99284.31;5075894;28;20052;-86
2021/04/07 02:31:46;;;;;;;10.70;2.03;;;;;;;1.47;70.01;99286.09;5075958;28;20071;-86
2021/04/07 02:34:13;;;;;;;8.93;1.77;;;;;;;1.47;69.91;99286.09;5075432;28;20135;-86
2021/04/07 02:36:39;;;;;;;12.20;2.08;;;;;;;1.46;70.21;99282.63;5093430;28;20047;-86
2021/04/07 02:39:05;;;;;;;6.55;1.48;;;;;;;1.45;70.42;99290.50;5075887;28;20434;-86
2021/04/07 02:41:32;;;;;;;5.40;1.75;;;;;;;1.46;70.67;99287.81;5075643;28;20044;-86
2021/04/07 02:43:58;;;;;;;8.15;1.48;;;;;;;1.49;71.12;99284.31;5075362;28;20048;-86
2021/04/07 02:46:24;;;;;;;7.28;1.77;;;;;;;1.52;71.00;99281.63;5075522;28;20040;-86
2021/04/07 02:48:50;;;;;;;6.45;1.88;;;;;;;1.55;71.34;99277.22;5075416;28;20056;-86
2021/04/07 02:51:16;;;;;;;4.70;1.33;;;;;;;1.60;71.13;99282.28;5075464;28;20055;-86
2021/04/07 02:53:42;;;;;;;4.28;1.60;;;;;;;1.65;71.48;99279.56;5075491;28;20052;-86
2021/04/07 02:56:08;;;;;;;9.00;2.17;;;;;;;1.69;71.33;99276.00;5075437;28;20131;-86
2021/04/07 02:58:35;;;;;;;6.93;1.80;;;;;;;1.72;71.30;99275.88;5075111;28;20054;-86
2021/04/07 03:01:03;;;;;;;10.98;2.53;;;;;;;1.79;70.92;99282.59;5075763;28;20051;-86
2021/04/07 03:03:29;;;;;;;10.38;1.80;;;;;;;1.81;71.08;99286.03;5093384;28;20059;-86
2021/04/07 03:05:55;;;;;;;7.28;1.67;;;;;;;1.87;71.11;99282.38;5093067;28;20393;-86
2021/04/07 03:08:21;;;;;;;7.80;1.48;;;;;;;1.90;71.35;99277.09;5093411;28;20052;-86
2021/04/07 03:10:47;;;;;;;8.07;1.48;;;;;;;1.93;71.33;99276.16;5075563;28;20044;-86
2021/04/07 03:13:13;;;;;;;6.80;1.65;;;;;;;1.94;71.06;99281.31;5093334;28;20048;-86
2021/04/07 03:15:39;;;;;;;9.65;1.83;;;;;;;1.97;71.40;99282.97;5075150;28;20545;-86
2021/04/07 03:18:05;;;;;;;7.60;1.40;;;;;;;1.99;71.31;99285.53;5075329;28;20070;-86
2021/04/07 03:20:31;;;;;;;10.90;2.38;;;;;;;2.00;71.67;99285.47;5093277;28;20051;-86
2021/04/07 03:22:57;;;;;;;11.40;1.85;;;;;;;2.04;71.94;99284.50;5093151;28;20163;-86
2021/04/07 03:25:23;;;;;;;9.85;1.60;;;;;;;2.08;71.94;99287.84;5093103;28;20447;-86
2021/04/07 03:27:49;;;;;;;4.07;1.77;;;;;;;2.11;71.54;99279.97;5075142;28;20052;-86
2021/04/07 03:30:17;;;;;;;9.25;1.92;;;;;;;2.15;71.72;99278.13;5076197;28;20052;-86
2021/04/07 03:32:43;;;;;;;8.57;1.80;;;;;;;2.18;71.44;99288.44;5078928;28;20523;-85
2021/04/07 03:35:10;;;;;;;7.70;1.50;;;;;;;2.21;71.61;99281.38;5096690;28;20399;-86
2021/04/07 03:37:36;;;;;;;11.32;1.80;;;;;;;2.24;71.05;99277.84;5078881;28;20052;-86
2021/04/07 03:40:03;;;;;;;5.90;1.40;;;;;;;2.26;70.94;99283.84;5096647;28;20503;-86
2021/04/07 03:42:29;;;;;;;4.78;1.58;;;;;;;2.29;71.40;99277.72;5079023;28;20052;-85
2021/04/07 03:44:55;;;;;;;7.82;1.45;;;;;;;2.31;71.54;99278.50;5078463;28;20044;-86
2021/04/07 03:47:21;;;;;;;6.65;1.70;;;;;;;2.34;71.40;99276.69;5096776;28;20101;-87
2021/04/07 03:49:47;;;;;;;8.35;1.95;;;;;;;2.38;71.63;99277.44;5078599;28;20487;-85
2021/04/07 03:52:13;;;;;;;13.35;1.85;;;;;;;2.39;71.67;99271.31;5078671;28;20051;-86
2021/04/07 03:54:40;;;;;;;11.18;1.92;;;;;;;2.41;71.38;99272.16;5078337;28;20054;-86
2021/04/07 03:57:06;;;;;;;8.75;1.70;;;;;;;2.44;70.98;99273.78;5096252;28;20044;-86
2021/04/07 03:59:32;;;;;;;6.80;2.08;;;;;;;2.44;70.93;99274.63;5089617;22;20107;-84
2021/04/07 04:01:58;;;;;;;6.47;2.20;;;;;;;2.45;70.91;99276.34;5052909;28;20406;-85
2021/04/07 04:04:24;;;;;;;5.47;1.63;;;;;;;2.46;70.91;99274.56;5037185;28;20049;-85
2021/04/07 04:06:52;;;;;;;7.63;1.27;;;;;;;2.46;71.17;99275.44;5037222;28;20045;-84
2021/04/07 04:09:18;;;;;;;8.30;1.70;;;;;;;2.47;70.89;99276.31;5053503;28;20060;-84
2021/04/07 04:11:44;;;;;;;9.82;2.03;;;;;;;2.46;71.12;99267.66;5036740;28;20053;-85
2021/04/07 04:14:10;;;;;;;8.13;1.83;;;;;;;2.47;71.05;99271.94;5036220;28;20127;-86
2021/04/07 04:16:36;;;;;;;7.15;1.88;;;;;;;2.47;71.24;99271.09;5035655;28;20057;-85
2021/04/07 04:19:02;;;;;;;6.82;1.55;;;;;;;2.48;71.17;99280.59;5035543;28;20054;-85
2021/04/07 04:21:28;;;;;;;6.90;2.17;;;;;;;2.49;71.05;99279.69;5036410;28;20104;-85
2021/04/07 04:23:55;;;;;;;11.57;1.92;;;;;;;2.48;70.95;99278.81;5037063;28;20059;-85
2021/04/07 04:26:21;;;;;;;11.20;2.00;;;;;;;2.50;70.71;99277.94;5036744;28;20049;-85
2021/04/07 04:28:47;;;;;;;3.80;1.85;;;;;;;2.50;71.15;99273.59;5035036;28;20056;-85
2021/04/07 04:31:14;;;;;;;7.13;1.85;;;;;;;2.51;71.15;99287.44;5035446;28;20103;-86
2021/04/07 04:33:40;;;;;;;6.97;2.00;;;;;;;2.53;70.80;99290.81;5036676;28;20057;-85
2021/04/07 04:36:07;;;;;;;8.63;1.60;;;;;;;2.51;70.83;99288.31;5035114;28;20490;-86
2021/04/07 04:38:33;;;;;;;4.75;1.58;;;;;;;2.52;71.35;99277.00;5036865;28;20049;-85
2021/04/07 04:40:59;;;;;;;9.30;2.35;;;;;;;2.51;70.91;99283.09;5035847;28;20049;-86
2021/04/07 04:43:25;;;;;;;6.82;1.70;;;;;;;2.53;71.65;99277.84;5034291;28;20049;-86
2021/04/07 04:45:51;;;;;;;8.75;2.20;;;;;;;2.54;71.23;99275.19;5035034;28;20103;-85
2021/04/07 04:48:21;;;;;;;6.95;1.58;;;;;;;2.56;71.46;99286.41;5036119;28;20053;-85
2021/04/07 04:50:48;;;;;;;8.73;1.85;;;;;;;2.57;71.24;99285.50;5036201;28;20418;-85
2021/04/07 04:53:14;;;;;;;6.97;1.60;;;;;;;2.57;71.51;99288.09;5036082;28;20050;-85
2021/04/07 04:55:40;;;;;;;7.20;1.90;;;;;;;2.59;71.31;99288.06;5035955;28;20521;-85
2021/04/07 04:58:06;;;;;;;5.82;2.13;;;;;;;2.59;71.47;99285.44;5036152;28;20049;-86
2021/04/07 05:00:32;;;;;;;6.90;1.83;;;;;;;2.60;71.29;99294.94;5036443;28;20115;-85
2021/04/07 05:02:58;;;;;;;7.13;1.60;;;;;;;2.62;71.25;99295.75;5035564;28;20053;-85
2021/04/07 05:05:24;;;;;;;10.55;1.95;;;;;;;2.63;71.25;99287.06;5034695;28;20445;-86
2021/04/07 05:07:51;;;;;;;6.10;1.70;;;;;;;2.64;71.54;99278.34;5034686;28;20049;-86
2021/04/07 05:10:17;;;;;;;8.73;1.90;;;;;;;2.66;71.24;99291.31;5035980;28;20049;-85
2021/04/07 05:12:43;;;;;;;7.03;1.83;;;;;;;2.67;71.22;99287.81;5034439;28;20462;-85
2021/04/07 05:15:10;;;;;;;7.10;2.10;;;;;;;2.66;71.60;99284.38;5034369;28;20060;-85
2021/04/07 05:17:36;;;;;;;5.28;1.88;;;;;;;2.65;71.23;99280.03;5035449;28;20426;-86
2021/04/07 05:20:05;;;;;;;6.20;1.85;;;;;;;2.65;71.19;99285.25;5035500;28;20081;-85
2021/04/07 05:22:31;;;;;;;6.00;2.17;;;;;;;2.63;71.35;99300.06;5034799;28;20053;-85
2021/04/07 05:24:57;;;;;;;8.20;2.00;;;;;;;2.59;71.56;99285.44;5035184;28;20493;-85
2021/04/07 05:27:23;;;;;;;10.98;2.10;;;;;;;2.56;71.67;99290.75;5036005;28;20045;-85
2021/04/07 05:29:49;;;;;;;8.48;2.42;;;;;;;2.54;71.54;99282.97;5035198;28;20057;-85
2021/04/07 05:32:15;;;;;;;7.43;2.17;;;;;;;2.53;71.74;99290.81;5035152;28;20049;-85
2021/04/07 05:34:41;;;;;;;6.07;2.45;;;;;;;2.52;72.49;99284.81;5033731;28;20053;-85
2021/04/07 05:37:08;;;;;;;8.02;2.30;;;;;;;2.51;71.85;99295.22;5035372;28;20053;-85
2021/04/07 05:39:35;;;;;;;4.00;2.22;;;;;;;2.50;72.51;99289.19;5035414;28;20076;-85
2021/04/07 05:42:01;;;;;;;7.32;2.08;;;;;;;2.51;72.54;99292.63;5033961;28;20053;-85
2021/04/07 05:44:27;;;;;;;7.93;2.40;;;;;;;2.52;72.51;99295.19;5034873;28;20045;-86
2021/04/07 05:46:53;;;;;;;8.30;2.42;;;;;;;2.53;72.88;99283.03;5034794;28;20048;-86
2021/04/07 05:49:19;;;;;;;3.40;2.20;;;;;;;2.56;72.42;99285.53;5035141;28;20422;-86
2021/04/07 05:51:45;;;;;;;4.72;2.28;;;;;;;2.57;72.79;99287.22;5035049;28;20053;-83
2021/04/07 05:54:11;;;;;;;6.93;3.10;;;;;;;2.60;72.75;99281.94;5034472;28;20111;-85
2021/04/07 05:56:37;;;;;;;4.70;2.60;;;;;;;2.61;72.99;99283.66;5034919;28;20049;-86
2021/04/07 05:59:04;;;;;;;7.53;3.15;;;;;;;2.64;72.67;99288.75;5035108;28;20057;-86
2021/04/07 06:01:30;;;;;;;4.90;2.38;;;;;;;2.66;72.90;99281.78;5034615;28;20056;-86
2021/04/07 06:03:56;;;;;;;7.85;3.10;;;;;;;2.69;72.81;99286.00;5033048;28;20053;-86
2021/04/07 06:06:23;;;;;;;6.07;3.28;;;;;;;2.72;72.93;99285.91;5033936;28;20049;-87
2021/04/07 06:08:49;;;;;;;5.03;2.95;;;;;;;2.74;73.09;99286.72;5032887;28;20080;-86
2021/04/07 06:11:18;;;;;;;8.45;3.47;;;;;;;2.76;72.58;99282.31;5033522;28;20132;-86
2021/04/07 06:13:45;;;;;;;7.22;3.50;;;;;;;2.78;72.94;99279.66;5032118;28;20433;-87
2021/04/07 06:16:12;;;;;;;8.20;3.33;;;;;;;2.81;72.89;99289.97;5033644;28;20064;-87
2021/04/07 06:18:38;;;;;;;4.93;3.78;;;;;;;2.82;72.64;99282.13;5033814;28;20444;-87
2021/04/07 06:21:05;;;;;;;8.60;3.33;;;;;;;2.85;72.69;99286.38;5032609;28;20061;-86
2021/04/07 06:23:31;;;;;;;11.70;4.20;;;;;;;2.87;72.74;99281.94;5032342;28;20497;-86
2021/04/07 06:25:57;;;;;;;7.72;3.63;;;;;;;2.88;72.81;99275.88;5033168;28;20045;-86
2021/04/07 06:28:23;;;;;;;6.93;4.35;;;;;;;2.91;72.75;99274.91;5032400;28;20049;-87
2021/04/07 06:30:49;;;;;;;4.88;3.55;;;;;;;2.93;72.96;99278.31;5032204;28;20509;-87
2021/04/07 06:33:27;;;;;;;6.30;3.67;;;;;;;2.94;73.13;99290.41;5032384;28;20076;-86
2021/04/07 06:36:05;;;;;;;5.72;4.05;;;;;;;2.96;72.43;99284.25;5033261;28;20049;-86
2021/04/07 06:38:32;;;;;;;4.90;3.33;;;;;;;3.00;73.38;99279.81;5032937;28;20057;-86
2021/04/07 06:40:59;;;;;;;8.68;4.40;;;;;;;3.02;72.73;99283.19;5033841;28;20065;-84
2021/04/07 06:43:28;;;;;;;5.43;3.90;;;;;;;3.03;73.05;99279.69;5032476;28;20049;-86
2021/04/07 06:45:54;;;;;;;7.00;3.95;;;;;;;3.08;73.02;99287.34;5031853;28;20452;-86
2021/04/07 06:48:21;;;;;;;6.50;3.67;;;;;;;3.09;73.29;99278.63;5033104;28;20046;-87
2021/04/07 06:50:50;;;;;;;5.80;4.00;;;;;;;3.11;73.22;99285.47;5033784;28;20559;-85
2021/04/07 06:53:18;;;;;;;7.70;3.95;;;;;;;3.13;73.15;99293.22;5033518;28;20095;-84
2021/04/07 06:55:44;;;;;;;9.45;4.18;;;;;;;3.16;73.07;99284.47;5032357;28;20053;-84
2021/04/07 06:58:11;;;;;;;5.03;4.20;;;;;;;3.16;73.23;99290.53;5031995;28;20050;-84
2021/04/07 07:00:39;;;;;;;7.18;3.75;;;;;;;3.17;73.08;99289.63;5033073;28;20045;-85
2021/04/07 07:03:11;;;;;;;4.97;3.40;;;;;;;3.19;72.73;99294.78;5033362;28;20490;-84
2021/04/07 07:05:41;;;;;;;5.47;3.72;;;;;;;3.18;73.12;99286.13;5034241;28;20060;-86
2021/04/07 07:08:07;;;;;;;5.38;4.15;;;;;;;3.20;72.95;99294.72;5036151;28;20068;-87
2021/04/07 07:10:46;;;;;;;3.95;3.40;;;;;;;3.18;72.36;99293.91;5035489;28;20057;-86
2021/04/07 07:13:21;;;;;;;5.70;3.53;;;;;;;3.19;72.56;99289.59;5036722;28;20053;-86
2021/04/07 07:15:48;;;;;;;8.98;4.32;;;;;;;3.22;72.73;99300.72;5036423;28;20498;-87
2021/04/07 07:18:22;;;;;;;7.82;4.40;;;;;;;3.21;72.73;99291.22;5035762;28;20065;-84
2021/04/07 07:20:48;;;;;;;4.72;3.80;;;;;;;3.24;72.83;99293.72;5037258;28;20053;-84
2021/04/07 07:23:24;;;;;;;5.47;3.85;;;;;;;3.24;72.84;99285.06;5036823;28;20057;-87
2021/04/07 07:26:03;;;;;;;6.20;3.58;;;;;;;3.27;72.93;99297.97;5035328;28;20464;-86
2021/04/07 07:28:41;;;;;;;5.15;3.70;;;;;;;3.31;72.41;99296.09;5036611;28;20049;-87
2021/04/07 07:31:30;;;;;;;6.93;3.70;;;;;;;3.35;71.96;99301.16;5035431;28;20072;-86
2021/04/07 07:33:58;;;;;;;6.50;3.95;;;;;;;3.41;73.07;99299.25;5036344;28;20053;-84
2021/04/07 07:36:29;;;;;;;4.32;3.72;;;;;;;3.43;72.85;99308.69;5035301;28;20056;-85
2021/04/07 07:38:57;;;;;;;5.97;4.15;;;;;;;3.47;72.70;99296.41;5036217;28;20486;-85
2021/04/07 07:41:34;;;;;;;5.07;4.30;;;;;;;3.48;72.96;99321.56;5035313;28;20045;-84
2021/04/07 07:44:16;;;;;;;6.72;4.00;;;;;;;3.50;72.61;99318.00;5035020;28;20413;-84
2021/04/07 07:46:43;;;;;;;6.15;3.47;;;;;;;3.55;73.01;99311.78;5035003;28;20405;-85
2021/04/07 07:49:18;;;;;;;5.15;3.35;;;;;;;3.56;72.20;99316.94;5034735;28;20053;-85
2021/04/07 07:51:46;;;;;;;6.65;3.83;;;;;;;3.60;72.60;99321.13;5036034;28;20045;-85
2021/04/07 07:54:14;;;;;;;8.10;4.10;;;;;;;3.63;72.83;99318.41;5035864;28;20057;-85
2021/04/07 07:56:40;;;;;;;6.18;3.95;;;;;;;3.66;72.56;99325.25;5036462;28;20053;-84
2021/04/07 07:59:07;;;;;;;5.70;3.50;;;;;;;3.68;72.86;99323.44;5034556;28;20053;-85
2021/04/07 08:01:44;;;;;;;5.90;3.72;;;;;;;3.68;72.43;99326.06;5036016;28;20179;-85
2021/04/07 08:04:10;;;;;;;6.85;3.67;;;;;;;3.69;72.36;99330.34;5034701;28;20057;-87
2021/04/07 08:06:37;;;;;;;6.55;4.50;;;;;;;3.70;72.68;99326.84;5036153;28;20521;-85
2021/04/07 08:09:04;;;;;;;5.25;3.55;;;;;;;3.70;72.45;99334.66;5034659;28;20082;-86
2021/04/07 08:11:33;;;;;;;5.13;3.65;;;;;;;3.71;72.47;99335.50;5034719;28;20064;-85
2021/04/07 08:14:00;;;;;;;5.82;3.42;;;;;;;3.72;72.45;99348.47;5034450;28;20061;-86
2021/04/07 08:16:27;;;;;;;6.03;3.80;;;;;;;3.72;72.41;99340.66;5035449;28;20052;-85
2021/04/07 08:18:54;;;;;;;4.30;3.50;;;;;;;3.75;73.16;99343.16;5034391;28;20065;-85
2021/04/07 08:21:22;;;;;;;4.65;3.40;;;;;;;3.76;73.02;99337.06;5034520;28;20060;-85
2021/04/07 08:23:56;;;;;;;5.28;3.78;;;;;;;3.78;72.54;99343.03;5035519;28;20061;-86
2021/04/07 08:26:26;;;;;;;5.18;3.80;;;;;;;3.84;72.77;99348.91;5033960;28;20049;-88
2021/04/07 08:28:54;;;;;;;5.00;3.40;;;;;;;3.87;73.53;99347.06;5035183;28;20563;-85
2021/04/07 08:31:20;;;;;;;4.30;3.63;;;;;;;3.92;73.49;99357.31;5034520;28;20053;-86
2021/04/07 08:33:49;;;;;;;5.00;3.78;;;;;;;3.97;73.80;99364.97;5033926;28;20053;-84
2021/04/07 08:36:17;;;;;;;6.10;3.85;;;;;;;4.01;73.44;99361.34;5035343;28;20045;-85
2021/04/07 08:38:43;;;;;;;5.30;3.63;;;;;;;4.08;73.65;99361.97;5034173;28;20045;-85
2021/04/07 08:41:21;;;;;;;5.47;3.55;;;;;;;4.11;73.27;99367.91;5035285;28;20128;-84
2021/04/07 08:43:47;;;;;;;4.97;3.58;;;;;;;4.19;74.12;99370.25;5034115;28;20088;-85
2021/04/07 08:46:15;;;;;;;4.15;3.40;;;;;;;4.27;73.96;99369.97;5035160;28;20430;-83
2021/04/07 08:48:43;;;;;;;4.82;3.63;;;;;;;4.33;74.25;99367.13;5034966;28;20077;-83
2021/04/07 08:51:13;;;;;;;5.13;3.58;;;;;;;4.40;74.15;99367.75;5033805;28;20529;-85
2021/04/07 08:53:41;;;;;;;5.00;3.92;;;;;;;4.47;73.44;99365.75;5035132;28;20484;-84
2021/04/07 08:56:17;;;;;;;4.18;3.42;;;;;;;4.51;73.18;99368.19;5035114;28;20422;-84
2021/04/07 08:58:52;;;;;;;4.63;3.08;;;;;;;4.59;73.35;99367.06;5033306;28;20498;-83
2021/04/07 09:01:20;;;;;;;4.00;3.58;;;;;;;4.67;74.22;99370.19;5035087;28;20054;-83
2021/04/07 09:03:46;;;;;;;3.92;3.30;;;;;;;4.75;74.91;99370.75;5033396;28;20053;-83
2021/04/07 09:06:13;;;;;;;5.13;3.22;;;;;;;4.87;74.77;99373.78;5034497;28;20053;-83
2021/04/07 09:08:51;;;;;;;4.97;3.58;;;;;;;4.94;74.11;99378.69;5034765;28;20049;-83
2021/04/07 09:11:38;;;;;;;6.25;3.22;;;;;;;5.11;74.24;99378.91;5034625;28;20487;-82
2021/04/07 09:14:06;;;;;;;5.20;3.50;;;;;;;5.28;75.93;99381.72;5034090;28;20441;-83
2021/04/07 09:16:39;;;;;;;3.78;3.15;;;;;;;5.42;75.30;99381.13;5034574;28;20045;-82
2021/04/07 09:19:22;;;;;;;5.57;4.07;;;;;;;5.62;75.84;99376.84;5034404;28;20498;-83
2021/04/07 09:21:56;;;;;;;4.03;3.53;;;;;;;5.85;76.14;99375.84;5034438;28;20053;-83
2021/04/07 09:24:27;;;;;;;6.22;3.70;;;;;;;6.06;76.92;99378.44;5032973;28;20056;-84
2021/04/07 09:26:57;;;;;;;4.72;3.70;;;;;;;6.26;76.31;99379.31;5034196;28;20477;-84
2021/04/07 09:29:23;;;;;;;6.38;3.50;;;;;;;6.46;76.93;99393.25;5032497;28;20136;-84
2021/04/07 09:31:51;;;;;;;4.13;3.72;;;;;;;6.64;76.78;99397.63;5033256;28;20053;-83
2021/04/07 09:34:18;;;;;;;4.85;3.50;;;;;;;6.85;76.96;99396.69;5034057;28;20390;-83
2021/04/07 09:36:47;;;;;;;5.18;3.45;;;;;;;7.02;75.85;99394.13;5034287;28;20053;-83
2021/04/07 09:39:16;;;;;;;6.60;3.75;;;;;;;7.20;74.97;99396.75;5032637;28;20517;-84
2021/04/07 09:41:44;;;;;;;6.07;3.67;;;;;;;7.36;75.38;99398.66;5032596;28;20057;-84
2021/04/07 09:44:13;;;;;;;7.25;3.35;;;;;;;7.52;75.55;99403.97;5032618;28;20053;-84
2021/04/07 09:46:39;;;;;;;6.03;3.10;;;;;;;7.66;75.42;99400.63;5032737;28;20045;-84
2021/04/07 09:49:08;;;;;;;7.25;2.88;;;;;;;7.79;74.49;99408.72;5032612;28;20050;-84
2021/04/07 09:51:43;;;;;;;8.75;4.40;;;;;;;7.88;72.68;99402.16;5033960;28;20053;-84
2021/04/07 09:54:21;;;;;;;5.05;3.00;;;;;;;7.94;72.17;99407.94;5033594;28;20049;-84
2021/04/07 09:57:00;;;;;;;6.60;3.60;;;;;;;8.03;73.01;99408.38;5032681;28;20398;-84
2021/04/07 09:59:34;;;;;;;5.78;3.45;;;;;;;8.17;74.38;99398.03;5072844;23;20045;-84
2021/04/07 10:02:24;;;;;;;6.55;3.38;;;;;;;8.33;74.18;99405.06;5049476;28;20513;-84
2021/04/07 10:04:54;;;;;;;5.13;3.47;;;;;;;8.51;74.88;99411.09;5049875;28;20061;-84
2021/04/07 10:07:22;;;;;;;9.73;3.45;;;;;;;8.63;73.63;99408.78;5034175;28;20041;-84
2021/04/07 10:09:52;;;;;;;9.32;2.85;;;;;;;8.70;73.82;99408.34;5033152;28;20049;-85
2021/04/07 10:12:23;;;;;;;5.88;3.10;;;;;;;8.79;73.37;99408.78;5035506;28;20049;-85
2021/04/07 10:14:55;;;;;;;9.30;3.22;;;;;;;8.88;71.55;99404.78;5032623;28;20050;-85
2021/04/07 10:17:24;;;;;;;4.50;2.95;;;;;;;8.94;72.46;99413.16;5034685;28;20045;-85
2021/04/07 10:19:51;;;;;;;5.20;2.92;;;;;;;9.00;72.59;99411.97;5033259;28;20060;-84
2021/04/07 10:22:22;;;;;;;8.15;2.85;;;;;;;9.02;70.40;99414.53;5033147;28;20053;-84
2021/04/07 10:24:49;;;;;;;4.47;2.10;;;;;;;9.03;70.85;99416.22;5032665;28;20049;-84
2021/04/07 10:27:24;;;;;;;8.40;2.45;;;;;;;8.96;69.64;99424.44;5033455;28;20049;-85
2021/04/07 10:30:06;;;;;;;6.03;2.60;;;;;;;8.91;69.95;99429.09;5033471;28;20555;-85
2021/04/07 10:32:38;;;;;;;5.88;2.38;;;;;;;8.89;70.60;99433.56;5032583;28;20489;-86
2021/04/07 10:35:05;;;;;;;7.05;2.35;;;;;;;8.89;71.21;99433.56;5033064;28;20057;-84
2021/04/07 10:37:31;;;;;;;5.40;2.17;;;;;;;8.87;71.61;99435.47;5033567;28;20045;-85
2021/04/07 10:39:57;;;;;;;5.40;2.17;;;;;;;8.86;72.10;99441.66;5035223;28;20054;-84
2021/04/07 10:42:23;;;;;;;6.68;1.90;;;;;;;8.85;72.18;99437.31;5037128;28;20387;-85
2021/04/07 10:44:59;;;;;;;7.47;2.20;;;;;;;8.81;70.15;99441.03;5037361;28;20054;-85
2021/04/07 10:47:26;;;;;;;6.70;1.90;;;;;;;8.82;72.11;99442.75;5038727;28;20052;-84
2021/04/07 10:49:57;;;;;;;7.50;1.80;;;;;;;8.77;70.55;99436.88;5038066;28;20053;-85
2021/04/07 10:52:40;;;;;;;6.78;1.90;;;;;;;8.72;70.18;99445.00;5039816;28;20049;-85
2021/04/07 10:55:10;;;;;;;4.65;1.67;;;;;;;8.70;70.29;99455.59;5039918;28;20076;-85
2021/04/07 10:57:39;;;;;;;7.60;1.85;;;;;;;8.66;70.89;99451.44;5038998;28;20049;-86
2021/04/07 11:00:10;;;;;;;4.65;1.90;;;;;;;8.57;69.88;99468.50;5039572;28;20049;-85
2021/04/07 11:02:46;;;;;;;6.05;1.60;;;;;;;8.47;69.08;99467.28;5039614;28;20546;-84
2021/04/07 11:05:15;;;;;;;3.90;1.23;;;;;;;8.39;70.11;99478.19;5039524;28;20053;-85
2021/04/07 11:07:42;;;;;;;3.22;1.40;;;;;;;8.29;71.26;99469.94;5038462;28;20049;-85
2021/04/07 11:10:10;;;;;;;3.60;1.60;;;;;;;8.23;71.92;99474.66;5039322;28;20061;-84
2021/04/07 11:12:36;;;;;;;5.03;1.90;;;;;;;8.21;73.09;99475.59;5039123;28;20053;-86
2021/04/07 11:15:05;;;;;;;2.72;1.17;;;;;;;8.24;72.80;99478.97;5037948;28;20224;-85
2021/04/07 11:17:31;;;;;;;5.38;1.40;;;;;;;8.25;72.58;99478.03;5039120;28;20112;-85
2021/04/07 11:19:57;;;;;;;5.65;1.73;;;;;;;8.25;72.05;99480.66;5040171;28;20053;-85
2021/04/07 11:22:24;;;;;;;5.13;1.40;;;;;;;8.22;71.75;99489.53;5039377;28;20053;-84
2021/04/07 11:24:50;;;;;;;6.35;1.23;;;;;;;8.21;72.63;99490.47;5038328;28;20465;-84
2021/04/07 11:27:16;;;;;;;4.75;1.35;;;;;;;8.26;74.73;99480.59;5038763;28;20053;-84
2021/04/07 11:29:42;;;;;;;5.72;1.73;;;;;;;8.42;76.21;99483.28;5038696;28;20053;-84
2021/04/07 11:32:09;;;;;;;4.38;1.33;;;;;;;8.67;78.51;99484.59;5036594;28;20056;-85
2021/04/07 11:35:01;;;;;;;6.30;1.90;;;;;;;9.10;81.83;99481.44;5038024;28;20088;-85
2021/04/07 11:38:01;;;;;;;10.95;1.70;;;;;;;9.54;79.55;99473.78;5040910;28;20056;-85
2021/04/07 11:41:40;;;;;;;6.85;1.60;;;;;;;10.02;79.59;99478.88;5039040;28;20049;-85
2021/04/07 11:43:46;;;;;;;5.32;1.63;;;;;;;10.49;77.83;99477.91;5040997;28;20119;-84
2021/04/07 11:46:12;;;;;;;7.93;2.03;;;;;;;10.76;74.93;99471.91;5039884;28;20053;-85
2021/04/07 11:48:40;;;;;;;10.15;2.03;;;;;;;10.89;72.44;99466.69;5039216;28;20053;-85